createdAt,value
2019-06-08T00:00:27.144Z,977.74
2019-06-08T00:03:27.147Z,977.75
2019-06-08T00:04:27.130Z,977.67
2019-06-08T00:05:27.134Z,977.71
2019-06-08T00:06:27.141Z,977.71
2019-06-08T00:09:27.198Z,977.68
2019-06-08T00:10:27.187Z,977.57
2019-06-08T00:11:27.155Z,977.66
2019-06-08T00:12:27.150Z,977.63
2019-06-08T00:15:27.162Z,977.56
2019-06-08T00:16:27.164Z,977.53
2019-06-08T00:17:34.325Z,977.60
2019-06-08T00:18:27.176Z,977.49
2019-06-08T00:21:27.153Z,977.53
2019-06-08T00:22:27.149Z,977.54
2019-06-08T00:23:27.154Z,977.52
2019-06-08T00:24:27.163Z,977.52
2019-06-08T00:27:27.184Z,977.52
2019-06-08T00:28:27.179Z,977.63
2019-06-08T00:29:27.176Z,977.58
2019-06-08T00:30:27.149Z,977.60
2019-06-08T00:33:27.168Z,977.60
2019-06-08T00:34:27.175Z,977.61
2019-06-08T00:35:27.206Z,977.58
2019-06-08T00:36:27.177Z,977.56
2019-06-08T00:39:27.173Z,977.60
2019-06-08T00:40:27.186Z,977.55
2019-06-08T00:41:27.195Z,977.51
2019-06-08T00:42:27.273Z,977.52
2019-06-08T00:45:27.241Z,977.47
2019-06-08T00:46:27.186Z,977.47
2019-06-08T00:47:42.044Z,977.51
2019-06-08T00:48:27.176Z,977.45
2019-06-08T00:51:27.185Z,977.38
2019-06-08T00:52:27.184Z,977.40
2019-06-08T00:53:27.193Z,977.45
2019-06-08T00:54:27.254Z,977.43
2019-06-08T00:57:27.254Z,977.43
2019-06-08T00:58:27.200Z,977.40
2019-06-08T00:59:27.211Z,977.48
2019-06-08T01:00:27.252Z,977.42
2019-06-08T01:03:27.216Z,977.45
2019-06-08T01:04:27.299Z,977.45
2019-06-08T01:05:27.188Z,977.51
2019-06-08T01:06:27.583Z,977.41
2019-06-08T01:09:27.255Z,977.57
2019-06-08T01:10:27.580Z,977.49
2019-06-08T01:11:27.201Z,977.54
2019-06-08T01:12:27.225Z,977.64
2019-06-08T01:15:31.072Z,977.62
2019-06-08T01:16:27.243Z,977.62
2019-06-08T01:17:27.589Z,977.57
2019-06-08T01:18:27.502Z,977.66
2019-06-08T01:21:27.718Z,977.61
2019-06-08T01:22:27.747Z,977.70
2019-06-08T01:23:27.905Z,977.67
2019-06-08T01:24:27.981Z,977.66
2019-06-08T01:27:28.196Z,977.65
2019-06-08T01:28:28.229Z,977.60
2019-06-08T01:29:28.344Z,977.64
2019-06-08T01:30:28.417Z,977.65
2019-06-08T01:33:28.705Z,977.63
2019-06-08T01:34:27.244Z,977.61
2019-06-08T01:35:27.218Z,977.61
2019-06-08T01:36:27.580Z,977.64
2019-06-08T01:39:27.314Z,977.61
2019-06-08T01:40:27.515Z,977.60
2019-06-08T01:41:27.758Z,977.62
2019-06-08T01:42:27.677Z,977.54
2019-06-08T01:45:27.910Z,977.50
2019-06-08T01:46:28.244Z,977.49
2019-06-08T01:47:28.261Z,977.52
2019-06-08T01:48:28.197Z,977.57
2019-06-08T01:51:28.504Z,977.49
2019-06-08T01:52:27.235Z,977.50
2019-06-08T01:53:27.283Z,977.47
2019-06-08T01:54:27.252Z,977.50
2019-06-08T01:57:27.274Z,977.61
2019-06-08T01:58:27.461Z,977.60
2019-06-08T01:59:27.429Z,977.62
2019-06-08T02:00:31.679Z,977.68
2019-06-08T02:03:28.133Z,977.63
2019-06-08T02:04:28.080Z,977.66
2019-06-08T02:05:28.207Z,977.61
2019-06-08T02:06:28.427Z,977.57
2019-06-08T02:09:28.591Z,977.60
2019-06-08T02:10:28.681Z,977.63
2019-06-08T02:11:28.688Z,977.67
2019-06-08T02:12:28.782Z,977.62
2019-06-08T02:15:27.302Z,977.69
2019-06-08T02:16:27.399Z,977.78
2019-06-08T02:17:27.394Z,977.75
2019-06-08T02:18:39.826Z,977.73
2019-06-08T02:20:28.625Z,977.82
2019-06-08T02:21:28.756Z,977.88
2019-06-08T02:22:27.266Z,977.87
2019-06-08T02:23:27.297Z,977.85
2019-06-08T02:26:28.691Z,977.89
2019-06-08T02:27:27.306Z,977.84
2019-06-08T02:28:27.462Z,977.89
2019-06-08T02:29:27.476Z,977.86
2019-06-08T02:32:28.535Z,977.90
2019-06-08T02:33:28.252Z,977.95
2019-06-08T02:34:28.342Z,977.85
2019-06-08T02:35:27.953Z,977.88
2019-06-08T02:38:27.556Z,978.02
2019-06-08T02:39:28.401Z,978.11
2019-06-08T02:40:27.509Z,978.11
2019-06-08T02:41:28.854Z,978.22
2019-06-08T02:44:28.243Z,978.29
2019-06-08T02:45:29.427Z,978.26
2019-06-08T02:46:28.839Z,978.34
2019-06-08T02:47:28.465Z,978.33
2019-06-08T02:50:28.483Z,978.46
2019-06-08T02:51:28.748Z,978.42
2019-06-08T02:52:27.282Z,978.49
2019-06-08T02:53:29.223Z,978.56
2019-06-08T02:56:27.290Z,978.61
2019-06-08T02:57:29.042Z,978.61
2019-06-08T02:58:29.094Z,978.71
2019-06-08T02:59:29.067Z,978.73
2019-06-08T03:02:27.302Z,978.85
2019-06-08T03:03:27.321Z,978.86
2019-06-08T03:04:27.324Z,978.86
2019-06-08T03:05:27.304Z,978.88
2019-06-08T03:08:27.298Z,978.97
2019-06-08T03:09:27.361Z,978.91
2019-06-08T03:10:27.314Z,978.94
2019-06-08T03:11:27.304Z,978.94
2019-06-08T03:14:27.284Z,978.96
2019-06-08T03:15:27.306Z,979.04
2019-06-08T03:16:27.310Z,979.03
2019-06-08T03:17:27.309Z,979.11
2019-06-08T03:20:27.369Z,979.15
2019-06-08T03:21:27.325Z,979.26
2019-06-08T03:22:27.318Z,979.20
2019-06-08T03:23:27.361Z,979.25
2019-06-08T03:26:27.345Z,979.25
2019-06-08T03:27:27.325Z,979.29
2019-06-08T03:28:27.327Z,979.33
2019-06-08T03:29:27.315Z,979.43
2019-06-08T03:32:27.346Z,979.42
2019-06-08T03:33:27.390Z,979.45
2019-06-08T03:34:27.342Z,979.50
2019-06-08T03:35:27.365Z,979.42
2019-06-08T03:38:27.350Z,979.56
2019-06-08T03:39:27.330Z,979.58
2019-06-08T03:40:27.328Z,979.53
2019-06-08T03:41:27.379Z,979.53
2019-06-08T03:44:27.341Z,979.62
2019-06-08T03:45:27.395Z,979.61
2019-06-08T03:46:27.411Z,979.67
2019-06-08T03:47:27.356Z,979.67
2019-06-08T03:50:27.319Z,979.73
2019-06-08T03:51:27.373Z,979.74
2019-06-08T03:52:27.332Z,979.80
2019-06-08T03:53:27.402Z,979.77
2019-06-08T03:56:27.399Z,979.71
2019-06-08T03:57:27.367Z,979.79
2019-06-08T03:58:27.349Z,979.82
2019-06-08T03:59:27.368Z,979.88
2019-06-08T04:02:27.394Z,979.89
2019-06-08T04:03:27.356Z,979.94
2019-06-08T04:04:27.360Z,979.96
2019-06-08T04:05:27.366Z,980.04
2019-06-08T04:08:27.380Z,980.11
2019-06-08T04:09:27.357Z,980.05
2019-06-08T04:10:27.364Z,979.99
2019-06-08T04:11:27.402Z,980.08
2019-06-08T04:14:27.371Z,980.10
2019-06-08T04:15:27.452Z,980.09
2019-06-08T04:16:27.382Z,980.22
2019-06-08T04:17:27.408Z,980.16
2019-06-08T04:20:27.385Z,980.25
2019-06-08T04:21:27.371Z,980.24
2019-06-08T04:22:27.369Z,980.32
2019-06-08T04:23:27.387Z,980.37
2019-06-08T04:26:27.378Z,980.29
2019-06-08T04:27:27.392Z,980.25
2019-06-08T04:28:27.376Z,980.29
2019-06-08T04:29:27.385Z,980.31
2019-06-08T04:32:27.409Z,980.43
2019-06-08T04:33:27.388Z,980.44
2019-06-08T04:34:27.387Z,980.50
2019-06-08T04:35:27.382Z,980.55
2019-06-08T04:38:27.381Z,980.44
2019-06-08T04:39:27.401Z,980.47
2019-06-08T04:40:27.388Z,980.49
2019-06-08T04:41:27.391Z,980.42
2019-06-08T04:44:27.392Z,980.45
2019-06-08T04:45:27.423Z,980.50
2019-06-08T04:46:27.391Z,980.51
2019-06-08T04:47:27.378Z,980.46
2019-06-08T04:50:27.421Z,980.49
2019-06-08T04:51:27.394Z,980.53
2019-06-08T04:52:27.392Z,980.68
2019-06-08T04:53:27.452Z,980.52
2019-06-08T04:56:27.376Z,980.59
2019-06-08T04:57:27.393Z,980.67
2019-06-08T04:58:27.400Z,980.70
2019-06-08T04:59:27.405Z,980.75
2019-06-08T05:02:27.414Z,980.70
2019-06-08T05:03:27.438Z,980.73
2019-06-08T05:04:27.390Z,980.73
2019-06-08T05:05:27.443Z,980.74
2019-06-08T05:08:27.440Z,980.81
2019-06-08T05:09:27.446Z,980.84
2019-06-08T05:10:27.412Z,980.91
2019-06-08T05:11:27.450Z,980.93
2019-06-08T05:14:27.406Z,980.98
2019-06-08T05:15:30.443Z,980.97
2019-06-08T05:16:30.418Z,980.95
2019-06-08T05:17:30.483Z,981.00
2019-06-08T05:19:30.476Z,981.01
2019-06-08T05:20:39.101Z,981.05
2019-06-08T05:21:30.430Z,981.02
2019-06-08T05:22:30.435Z,981.06
2019-06-08T05:25:30.428Z,981.29
2019-06-08T05:26:30.467Z,981.18
2019-06-08T05:27:30.446Z,981.22
2019-06-08T05:28:30.438Z,981.32
2019-06-08T05:31:30.446Z,981.40
2019-06-08T05:32:30.435Z,981.42
2019-06-08T05:33:30.453Z,981.44
2019-06-08T05:34:30.429Z,981.46
2019-06-08T05:37:30.438Z,981.45
2019-06-08T05:38:30.481Z,981.62
2019-06-08T05:39:30.449Z,981.52
2019-06-08T05:40:30.465Z,981.59
2019-06-08T05:43:30.440Z,981.62
2019-06-08T05:44:30.463Z,981.71
2019-06-08T05:45:30.457Z,981.61
2019-06-08T05:46:30.444Z,981.72
2019-06-08T05:49:30.499Z,981.81
2019-06-08T05:50:30.512Z,981.78
2019-06-08T05:51:30.447Z,981.79
2019-06-08T05:52:30.456Z,981.89
2019-06-08T05:55:30.458Z,981.99
2019-06-08T05:56:30.463Z,981.99
2019-06-08T05:57:30.473Z,982.01
2019-06-08T05:58:30.465Z,981.99
2019-06-08T06:01:30.484Z,982.07
2019-06-08T06:02:30.467Z,982.06
2019-06-08T06:03:30.491Z,982.04
2019-06-08T06:04:30.449Z,982.01
2019-06-08T06:07:30.489Z,982.13
2019-06-08T06:08:30.489Z,982.15
2019-06-08T06:09:30.467Z,982.10
2019-06-08T06:10:30.504Z,982.17
2019-06-08T06:13:30.480Z,982.23
2019-06-08T06:14:30.478Z,982.25
2019-06-08T06:15:30.484Z,982.27
2019-06-08T06:16:30.488Z,982.28
2019-06-08T06:19:30.486Z,982.41
2019-06-08T06:20:30.470Z,982.42
2019-06-08T06:21:30.481Z,982.39
2019-06-08T06:22:30.494Z,982.45
2019-06-08T06:25:30.499Z,982.52
2019-06-08T06:26:30.480Z,982.59
2019-06-08T06:27:30.522Z,982.53
2019-06-08T06:28:30.497Z,982.58
2019-06-08T06:31:30.476Z,982.63
2019-06-08T06:32:30.501Z,982.66
2019-06-08T06:33:30.498Z,982.66
2019-06-08T06:34:30.507Z,982.72
2019-06-08T06:37:30.494Z,982.81
2019-06-08T06:38:30.547Z,982.81
2019-06-08T06:39:30.539Z,982.85
2019-06-08T06:40:30.514Z,982.80
2019-06-08T06:43:30.479Z,982.92
2019-06-08T06:44:30.531Z,982.89
2019-06-08T06:45:30.499Z,982.93
2019-06-08T06:46:30.508Z,982.96
2019-06-08T06:49:30.519Z,983.06
2019-06-08T06:50:30.554Z,983.01
2019-06-08T06:51:30.534Z,983.00
2019-06-08T06:52:30.500Z,983.03
2019-06-08T06:55:30.511Z,983.05
2019-06-08T06:56:30.520Z,983.15
2019-06-08T06:57:30.524Z,983.08
2019-06-08T06:58:30.510Z,983.10
2019-06-08T07:01:30.521Z,983.13
2019-06-08T07:02:30.533Z,983.19
2019-06-08T07:03:30.539Z,983.20
2019-06-08T07:04:30.509Z,983.21
2019-06-08T07:07:30.519Z,983.24
2019-06-08T07:08:30.571Z,983.21
2019-06-08T07:09:30.546Z,983.31
2019-06-08T07:10:30.516Z,983.27
2019-06-08T07:13:30.533Z,983.24
2019-06-08T07:14:30.557Z,983.35
2019-06-08T07:15:30.545Z,983.34
2019-06-08T07:16:30.524Z,983.31
2019-06-08T07:19:30.531Z,983.38
2019-06-08T07:20:30.579Z,983.37
2019-06-08T07:21:41.371Z,983.35
2019-06-08T07:22:30.561Z,983.39
2019-06-08T07:25:30.548Z,983.41
2019-06-08T07:26:30.550Z,983.43
2019-06-08T07:27:30.557Z,983.31
2019-06-08T07:28:30.531Z,983.41
2019-06-08T07:31:30.538Z,983.40
2019-06-08T07:32:30.557Z,983.45
2019-06-08T07:33:30.571Z,983.40
2019-06-08T07:34:30.551Z,983.47
2019-06-08T07:37:30.584Z,983.55
2019-06-08T07:38:30.569Z,983.54
2019-06-08T07:39:30.592Z,983.56
2019-06-08T07:40:30.551Z,983.60
2019-06-08T07:43:30.573Z,983.50
2019-06-08T07:44:30.590Z,983.54
2019-06-08T07:45:30.597Z,983.53
2019-06-08T07:46:30.564Z,983.54
2019-06-08T07:49:30.562Z,983.53
2019-06-08T07:50:30.567Z,983.56
2019-06-08T07:51:30.580Z,983.63
2019-06-08T07:52:30.568Z,983.59
2019-06-08T07:55:30.572Z,983.57
2019-06-08T07:56:30.591Z,983.55
2019-06-08T07:57:30.585Z,983.59
2019-06-08T07:58:30.563Z,983.51
2019-06-08T08:01:36.214Z,983.57
2019-06-08T08:02:30.613Z,983.63
2019-06-08T08:03:30.599Z,983.54
2019-06-08T08:04:30.605Z,983.62
2019-06-08T08:07:30.590Z,983.66
2019-06-08T08:08:30.602Z,983.67
2019-06-08T08:09:30.646Z,983.60
2019-06-08T08:10:30.583Z,983.68
2019-06-08T08:13:30.583Z,983.70
2019-06-08T08:14:30.606Z,983.76
2019-06-08T08:15:30.592Z,983.67
2019-06-08T08:16:30.609Z,983.78
2019-06-08T08:19:30.599Z,983.72
2019-06-08T08:20:30.625Z,983.80
2019-06-08T08:21:30.613Z,983.68
2019-06-08T08:22:30.644Z,983.70
2019-06-08T08:25:30.604Z,983.82
2019-06-08T08:26:34.275Z,983.83
2019-06-08T08:27:30.611Z,983.88
2019-06-08T08:28:30.598Z,983.83
2019-06-08T08:31:30.611Z,983.84
2019-06-08T08:32:30.613Z,983.87
2019-06-08T08:33:30.620Z,983.82
2019-06-08T08:34:30.615Z,983.90
2019-06-08T08:37:30.607Z,984.00
2019-06-08T08:38:30.615Z,983.96
2019-06-08T08:39:30.674Z,983.86
2019-06-08T08:40:30.652Z,984.00
2019-06-08T08:43:30.639Z,983.93
2019-06-08T08:44:30.639Z,983.98
2019-06-08T08:45:30.624Z,983.98
2019-06-08T08:46:30.616Z,984.05
2019-06-08T08:49:30.639Z,984.12
2019-06-08T08:50:30.614Z,984.10
2019-06-08T08:51:30.635Z,984.09
2019-06-08T08:52:36.420Z,984.04
2019-06-08T08:55:30.649Z,984.05
2019-06-08T08:56:30.658Z,984.16
2019-06-08T08:57:30.655Z,984.28
2019-06-08T08:58:30.654Z,984.23
2019-06-08T09:01:30.630Z,984.28
2019-06-08T09:02:30.669Z,984.22
2019-06-08T09:03:33.571Z,984.28
2019-06-08T09:04:30.648Z,984.33
2019-06-08T09:07:30.641Z,984.18
2019-06-08T09:08:30.658Z,984.40
2019-06-08T09:09:30.659Z,984.35
2019-06-08T09:10:30.661Z,984.23
2019-06-08T09:13:30.666Z,984.38
2019-06-08T09:14:30.661Z,984.32
2019-06-08T09:15:31.489Z,984.30
2019-06-08T09:16:30.664Z,984.33
2019-06-08T09:19:30.710Z,984.38
2019-06-08T09:20:30.685Z,984.39
2019-06-08T09:21:30.684Z,984.41
2019-06-08T09:22:31.263Z,984.35
2019-06-08T09:25:30.863Z,984.38
2019-06-08T09:26:31.404Z,984.43
2019-06-08T09:27:30.757Z,984.39
2019-06-08T09:28:30.666Z,984.39
2019-06-08T09:31:31.058Z,984.49
2019-06-08T09:32:30.721Z,984.44
2019-06-08T09:33:30.701Z,984.37
2019-06-08T09:34:30.679Z,984.45
2019-06-08T09:37:30.726Z,984.48
2019-06-08T09:38:30.718Z,984.48
2019-06-08T09:39:30.707Z,984.50
2019-06-08T09:40:32.613Z,984.56
2019-06-08T09:43:30.710Z,984.52
2019-06-08T09:44:30.696Z,984.46
2019-06-08T09:45:30.698Z,984.55
2019-06-08T09:46:30.685Z,984.53
2019-06-08T09:49:30.721Z,984.57
2019-06-08T09:50:30.712Z,984.68
2019-06-08T09:51:30.720Z,984.60
2019-06-08T09:52:30.685Z,984.65
2019-06-08T09:55:30.715Z,984.73
2019-06-08T09:56:30.705Z,984.76
2019-06-08T09:57:30.692Z,984.69
2019-06-08T09:58:30.707Z,984.65
2019-06-08T10:01:30.711Z,984.75
2019-06-08T10:02:30.721Z,984.84
2019-06-08T10:03:30.917Z,984.85
2019-06-08T10:04:31.581Z,984.80
2019-06-08T10:07:31.302Z,984.88
2019-06-08T10:08:30.813Z,984.91
2019-06-08T10:09:30.721Z,984.87
2019-06-08T10:10:30.720Z,984.95
2019-06-08T10:13:30.738Z,984.88
2019-06-08T10:14:30.723Z,984.89
2019-06-08T10:15:30.749Z,984.96
2019-06-08T10:16:31.097Z,984.96
2019-06-08T10:19:30.734Z,985.14
2019-06-08T10:20:30.950Z,984.96
2019-06-08T10:21:30.742Z,985.03
2019-06-08T10:22:30.731Z,985.02
2019-06-08T10:25:30.771Z,985.02
2019-06-08T10:26:30.755Z,985.05
2019-06-08T10:27:30.745Z,985.08
2019-06-08T10:28:30.735Z,985.13
2019-06-08T10:31:39.014Z,985.08
2019-06-08T10:32:30.805Z,985.15
2019-06-08T10:33:30.769Z,985.10
2019-06-08T10:34:30.756Z,985.29
2019-06-08T10:37:30.745Z,985.23
2019-06-08T10:38:30.822Z,985.26
2019-06-08T10:39:30.756Z,985.20
2019-06-08T10:40:30.766Z,985.23
2019-06-08T10:43:30.769Z,985.33
2019-06-08T10:44:30.785Z,985.24
2019-06-08T10:45:30.775Z,985.36
2019-06-08T10:46:30.767Z,985.31
2019-06-08T10:49:30.789Z,985.36
2019-06-08T10:50:30.764Z,985.30
2019-06-08T10:51:30.789Z,985.30
2019-06-08T10:52:30.762Z,985.33
2019-06-08T10:55:30.789Z,985.31
2019-06-08T10:56:31.161Z,985.36
2019-06-08T10:57:30.794Z,985.27
2019-06-08T10:58:30.809Z,985.36
2019-06-08T11:01:30.770Z,985.41
2019-06-08T11:02:30.784Z,985.26
2019-06-08T11:03:30.846Z,985.40
2019-06-08T11:04:30.817Z,985.42
2019-06-08T11:07:30.832Z,985.34
2019-06-08T11:08:30.790Z,985.29
2019-06-08T11:09:30.835Z,985.32
2019-06-08T11:10:30.785Z,985.29
2019-06-08T11:13:30.829Z,985.29
2019-06-08T11:14:30.810Z,985.31
2019-06-08T11:15:30.807Z,985.34
2019-06-08T11:16:30.806Z,985.28
2019-06-08T11:19:30.797Z,985.48
2019-06-08T11:20:30.815Z,985.34
2019-06-08T11:21:30.806Z,985.49
2019-06-08T11:22:30.829Z,985.38
2019-06-08T11:25:30.812Z,985.51
2019-06-08T11:26:30.845Z,985.46
2019-06-08T11:27:30.845Z,985.43
2019-06-08T11:28:30.832Z,985.53
2019-06-08T11:31:32.234Z,985.65
2019-06-08T11:32:30.824Z,985.58
2019-06-08T11:33:30.838Z,985.58
2019-06-08T11:34:30.811Z,985.59
2019-06-08T11:37:30.848Z,985.54
2019-06-08T11:38:30.819Z,985.58
2019-06-08T11:39:30.821Z,985.62
2019-06-08T11:40:30.836Z,985.69
2019-06-08T11:43:30.846Z,985.59
2019-06-08T11:44:30.849Z,985.61
2019-06-08T11:45:30.845Z,985.64
2019-06-08T11:46:30.826Z,985.71
2019-06-08T11:49:30.833Z,985.64
2019-06-08T11:50:30.874Z,985.74
2019-06-08T11:51:30.862Z,985.69
2019-06-08T11:52:30.832Z,985.68
2019-06-08T11:55:30.869Z,985.75
2019-06-08T11:56:30.895Z,985.77
2019-06-08T11:57:30.846Z,985.72
2019-06-08T11:58:30.888Z,985.72
2019-06-08T12:01:30.842Z,985.86
2019-06-08T12:02:30.877Z,985.80
2019-06-08T12:03:30.860Z,985.68
2019-06-08T12:04:30.851Z,985.79
2019-06-08T12:07:30.875Z,985.73
2019-06-08T12:08:30.853Z,985.74
2019-06-08T12:09:30.853Z,985.84
2019-06-08T12:10:30.858Z,985.76
2019-06-08T12:13:30.863Z,985.84
2019-06-08T12:14:33.580Z,985.89
2019-06-08T12:15:30.890Z,985.74
2019-06-08T12:16:30.867Z,985.85
2019-06-08T12:19:31.550Z,985.83
2019-06-08T12:20:30.875Z,985.70
2019-06-08T12:21:30.900Z,985.84
2019-06-08T12:22:30.873Z,985.68
2019-06-08T12:25:30.876Z,985.79
2019-06-08T12:26:30.930Z,985.74
2019-06-08T12:27:36.146Z,985.77
2019-06-08T12:28:30.870Z,985.80
2019-06-08T12:31:30.895Z,985.81
2019-06-08T12:32:30.912Z,985.75
2019-06-08T12:33:30.913Z,985.78
2019-06-08T12:34:30.890Z,985.82
2019-06-08T12:37:30.912Z,985.70
2019-06-08T12:38:34.126Z,985.83
2019-06-08T12:39:30.941Z,985.81
2019-06-08T12:40:30.922Z,985.82
2019-06-08T12:43:30.898Z,985.87
2019-06-08T12:44:30.907Z,985.88
2019-06-08T12:45:30.917Z,985.91
2019-06-08T12:46:30.903Z,985.89
2019-06-08T12:49:30.914Z,985.91
2019-06-08T12:50:30.915Z,985.90
2019-06-08T12:51:30.989Z,985.92
2019-06-08T12:52:30.933Z,985.87
2019-06-08T12:55:30.915Z,985.92
2019-06-08T12:56:30.929Z,985.90
2019-06-08T12:57:30.936Z,985.96
2019-06-08T12:58:30.925Z,985.95
2019-06-08T13:00:30.910Z,985.87
2019-06-08T13:01:30.951Z,985.87
2019-06-08T13:02:30.975Z,985.86
2019-06-08T13:03:30.923Z,985.87
2019-06-08T13:06:30.942Z,985.97
2019-06-08T13:07:30.946Z,985.96
2019-06-08T13:08:30.950Z,985.90
2019-06-08T13:09:30.955Z,985.96
2019-06-08T13:12:30.938Z,985.93
2019-06-08T13:13:30.953Z,985.91
2019-06-08T13:14:30.968Z,985.94
2019-06-08T13:15:31.044Z,985.91
2019-06-08T13:18:30.968Z,985.86
2019-06-08T13:19:31.000Z,985.95
2019-06-08T13:20:30.949Z,985.83
2019-06-08T13:21:34.907Z,986.00
2019-06-08T13:24:30.959Z,985.96
2019-06-08T13:25:39.588Z,986.02
2019-06-08T13:26:31.205Z,986.08
2019-06-08T13:27:30.983Z,986.09
2019-06-08T13:30:32.481Z,986.12
2019-06-08T13:31:30.962Z,986.09
2019-06-08T13:32:30.956Z,986.09
2019-06-08T13:33:30.971Z,986.09
2019-06-08T13:36:30.969Z,986.07
2019-06-08T13:37:30.959Z,986.04
2019-06-08T13:38:30.990Z,985.99
2019-06-08T13:39:30.979Z,985.93
2019-06-08T13:42:30.983Z,985.94
2019-06-08T13:43:30.972Z,986.00
2019-06-08T13:44:30.981Z,986.04
2019-06-08T13:45:30.994Z,986.08
2019-06-08T13:48:31.002Z,986.06
2019-06-08T13:49:31.038Z,986.25
2019-06-08T13:50:31.002Z,986.15
2019-06-08T13:51:30.982Z,986.21
2019-06-08T13:54:31.289Z,986.24
2019-06-08T13:55:47.643Z,986.24
2019-06-08T13:56:31.002Z,986.17
2019-06-08T13:57:31.002Z,986.23
2019-06-08T14:00:30.991Z,986.26
2019-06-08T14:01:31.041Z,986.08
2019-06-08T14:02:31.749Z,986.08
2019-06-08T14:03:31.016Z,986.13
2019-06-08T14:06:31.026Z,986.19
2019-06-08T14:07:34.431Z,986.17
2019-06-08T14:08:33.031Z,986.15
2019-06-08T14:09:31.658Z,986.23
2019-06-08T14:12:31.087Z,986.27
2019-06-08T14:13:34.133Z,986.24
2019-06-08T14:14:33.629Z,986.24
2019-06-08T14:15:31.040Z,986.19
2019-06-08T14:18:34.088Z,986.23
2019-06-08T14:19:31.772Z,986.23
2019-06-08T14:20:34.303Z,986.18
2019-06-08T14:21:38.565Z,986.12
2019-06-08T14:24:34.485Z,986.29
2019-06-08T14:25:46.624Z,986.26
2019-06-08T14:26:31.034Z,986.33
2019-06-08T14:27:33.248Z,986.38
2019-06-08T14:30:33.102Z,986.30
2019-06-08T14:31:32.152Z,986.32
2019-06-08T14:32:31.025Z,986.36
2019-06-08T14:33:32.107Z,986.33
2019-06-08T14:36:31.071Z,986.41
2019-06-08T14:37:31.056Z,986.32
2019-06-08T14:38:38.271Z,986.30
2019-06-08T14:39:31.828Z,986.37
2019-06-08T14:42:31.830Z,986.48
2019-06-08T14:43:31.388Z,986.40
2019-06-08T14:44:32.178Z,986.39
2019-06-08T14:45:31.259Z,986.51
2019-06-08T14:48:33.489Z,986.46
2019-06-08T14:49:34.983Z,986.42
2019-06-08T14:50:31.280Z,986.38
2019-06-08T14:51:31.109Z,986.49
2019-06-08T14:54:34.701Z,986.43
2019-06-08T14:55:34.101Z,986.46
2019-06-08T14:56:31.762Z,986.38
2019-06-08T14:57:31.096Z,986.38
2019-06-08T15:00:31.098Z,986.46
2019-06-08T15:01:31.485Z,986.49
2019-06-08T15:02:31.438Z,986.46
2019-06-08T15:03:31.093Z,986.41
2019-06-08T15:06:33.917Z,986.60
2019-06-08T15:07:32.692Z,986.43
2019-06-08T15:08:31.220Z,986.49
2019-06-08T15:09:31.087Z,986.56
2019-06-08T15:12:31.494Z,986.43
2019-06-08T15:13:31.273Z,986.35
2019-06-08T15:14:35.059Z,986.40
2019-06-08T15:15:32.259Z,986.45
2019-06-08T15:18:31.839Z,986.40
2019-06-08T15:19:32.559Z,986.41
2019-06-08T15:20:31.128Z,986.38
2019-06-08T15:21:33.012Z,986.35
2019-06-08T15:24:32.731Z,986.30
2019-06-08T15:25:32.771Z,986.30
2019-06-08T15:26:39.887Z,986.35
2019-06-08T15:27:33.314Z,986.37
2019-06-08T15:30:32.743Z,986.30
2019-06-08T15:31:31.628Z,986.36
2019-06-08T15:32:33.723Z,986.29
2019-06-08T15:33:33.669Z,986.35
2019-06-08T15:36:32.471Z,986.35
2019-06-08T15:37:32.216Z,986.36
2019-06-08T15:38:32.413Z,986.32
2019-06-08T15:39:33.685Z,986.36
2019-06-08T15:42:32.429Z,986.37
2019-06-08T15:43:34.445Z,986.41
2019-06-08T15:44:32.026Z,986.41
2019-06-08T15:45:32.919Z,986.38
2019-06-08T15:48:32.380Z,986.40
2019-06-08T15:49:32.324Z,986.39
2019-06-08T15:50:31.120Z,986.33
2019-06-08T15:51:35.534Z,986.41
2019-06-08T15:54:36.229Z,986.33
2019-06-08T15:55:32.972Z,986.31
2019-06-08T15:56:41.758Z,986.31
2019-06-08T15:57:35.655Z,986.41
2019-06-08T16:00:32.831Z,986.36
2019-06-08T16:01:31.521Z,986.28
2019-06-08T16:02:31.723Z,986.32
2019-06-08T16:03:31.435Z,986.34
2019-06-08T16:06:31.797Z,986.33
2019-06-08T16:07:32.750Z,986.37
2019-06-08T16:08:32.275Z,986.27
2019-06-08T16:09:32.117Z,986.30
2019-06-08T16:12:33.055Z,986.22
2019-06-08T16:13:31.162Z,986.29
2019-06-08T16:14:31.180Z,986.37
2019-06-08T16:15:31.174Z,986.41
2019-06-08T16:18:31.735Z,986.43
2019-06-08T16:19:31.593Z,986.48
2019-06-08T16:20:31.585Z,986.49
2019-06-08T16:21:31.757Z,986.44
2019-06-08T16:24:31.879Z,986.35
2019-06-08T16:25:35.209Z,986.44
2019-06-08T16:26:31.736Z,986.44
2019-06-08T16:27:32.098Z,986.40
2019-06-08T16:30:31.229Z,986.47
2019-06-08T16:31:31.181Z,986.45
2019-06-08T16:32:31.564Z,986.46
2019-06-08T16:33:31.229Z,986.49
2019-06-08T16:36:31.488Z,986.56
2019-06-08T16:37:31.597Z,986.57
2019-06-08T16:38:32.353Z,986.49
2019-06-08T16:39:31.248Z,986.53
2019-06-08T16:42:32.383Z,986.50
2019-06-08T16:43:31.192Z,986.51
2019-06-08T16:44:32.248Z,986.53
2019-06-08T16:45:31.219Z,986.44
2019-06-08T16:48:32.321Z,986.51
2019-06-08T16:49:31.253Z,986.54
2019-06-08T16:50:32.251Z,986.58
2019-06-08T16:51:31.462Z,986.52
2019-06-08T16:54:31.255Z,986.52
2019-06-08T16:55:32.070Z,986.58
2019-06-08T16:56:31.977Z,986.60
2019-06-08T16:57:31.236Z,986.62
2019-06-08T17:00:34.574Z,986.57
2019-06-08T17:01:32.718Z,986.62
2019-06-08T17:02:32.641Z,986.61
2019-06-08T17:03:31.232Z,986.63
2019-06-08T17:06:31.275Z,986.62
2019-06-08T17:07:32.197Z,986.54
2019-06-08T17:08:35.312Z,986.60
2019-06-08T17:09:32.528Z,986.63
2019-06-08T17:12:31.240Z,986.63
2019-06-08T17:13:31.928Z,986.62
2019-06-08T17:14:32.002Z,986.73
2019-06-08T17:15:31.974Z,986.66
2019-06-08T17:18:32.204Z,986.66
2019-06-08T17:19:32.043Z,986.70
2019-06-08T17:20:32.086Z,986.69
2019-06-08T17:21:32.197Z,986.65
2019-06-08T17:24:32.498Z,986.71
2019-06-08T17:25:32.293Z,986.68
2019-06-08T17:26:32.538Z,986.79
2019-06-08T17:27:32.523Z,986.72
2019-06-08T17:30:31.258Z,986.70
2019-06-08T17:31:31.241Z,986.70
2019-06-08T17:32:31.408Z,986.76
2019-06-08T17:33:31.245Z,986.69
2019-06-08T17:36:31.955Z,986.74
2019-06-08T17:37:31.692Z,986.68
2019-06-08T17:38:31.810Z,986.74
2019-06-08T17:39:31.730Z,986.67
2019-06-08T17:42:32.093Z,986.66
2019-06-08T17:43:32.080Z,986.68
2019-06-08T17:44:32.187Z,986.69
2019-06-08T17:45:32.340Z,986.78
2019-06-08T17:48:32.451Z,986.66
2019-06-08T17:49:32.404Z,986.66
2019-06-08T17:50:32.558Z,986.63
2019-06-08T17:51:32.714Z,986.65
2019-06-08T17:54:32.593Z,986.62
2019-06-08T17:55:31.275Z,986.69
2019-06-08T17:56:31.294Z,986.61
2019-06-08T17:57:42.462Z,986.66
2019-06-08T18:00:31.294Z,986.66
2019-06-08T18:01:31.315Z,986.54
2019-06-08T18:02:31.827Z,986.65
2019-06-08T18:03:31.291Z,986.54
2019-06-08T18:06:31.302Z,986.57
2019-06-08T18:07:31.284Z,986.65
2019-06-08T18:08:31.300Z,986.62
2019-06-08T18:09:31.296Z,986.67
2019-06-08T18:12:31.327Z,986.71
2019-06-08T18:13:31.293Z,986.71
2019-06-08T18:14:31.329Z,986.65
2019-06-08T18:15:31.308Z,986.64
2019-06-08T18:18:31.315Z,986.60
2019-06-08T18:19:31.306Z,986.59
2019-06-08T18:20:31.310Z,986.66
2019-06-08T18:21:31.311Z,986.67
2019-06-08T18:24:31.304Z,986.54
2019-06-08T18:25:31.302Z,986.62
2019-06-08T18:26:31.314Z,986.58
2019-06-08T18:27:31.320Z,986.63
2019-06-08T18:30:31.320Z,986.67
2019-06-08T18:31:31.322Z,986.74
2019-06-08T18:32:31.333Z,986.69
2019-06-08T18:33:31.341Z,986.74
2019-06-08T18:36:31.344Z,986.82
2019-06-08T18:37:31.335Z,986.85
2019-06-08T18:38:31.354Z,986.84
2019-06-08T18:39:31.329Z,986.90